This is the latest recevied weather packets stored in our database for station/object N1UNH. If no packets are shown the sender has not sent any weather packets the latest 10 day(s).
| Time | Temp. | Humidity | Pressure | Rain* | Wind** | Luminosity | Snow |
|---|---|---|---|---|---|---|---|
| 1777566205 | 8.89° C | 93% | 1012.8 hPa | 1.78 mm | - | 102 W/m² | - |
| 1777565901 | 8.89° C | 93% | 1012.7 hPa | 1.78 mm | - | 106 W/m² | - |
| 1777565597 | 8.89° C | 93% | 1012.8 hPa | 1.27 mm | - | 106 W/m² | - |
| 1777565294 | 8.89° C | 92% | 1012.8 hPa | 1.27 mm | - | 119 W/m² | - |
| 1777564989 | 8.33° C | 92% | 1012.5 hPa | 1.78 mm | - | 119 W/m² | - |
| 1777564685 | 8.33° C | 92% | 1012.7 hPa | 1.78 mm | - | 113 W/m² | - |
| 1777564380 | 8.89° C | 93% | 1012.8 hPa | 1.27 mm | - | 72 W/m² | - |
| 1777564076 | 8.33° C | 93% | 1012.4 hPa | 1.27 mm | - | 89 W/m² | - |
| 1777563773 | 8.33° C | 93% | 1012.7 hPa | 0 mm | - | 90 W/m² | - |
| 1777563469 | 8.33° C | 93% | 1012.8 hPa | 0 mm | - | 82 W/m² | - |
| 1777563169 | 8.33° C | 93% | 1012.9 hPa | 0 mm | - | 75 W/m² | - |
| 1777562865 | 8.33° C | 94% | 1012.8 hPa | 1.78 mm | - | 89 W/m² | - |
| 1777562562 | 8.33° C | 93% | 1012.8 hPa | 1.78 mm | - | 88 W/m² | - |
| 1777562260 | 8.33° C | 94% | 1012.8 hPa | 0 mm | - | 71 W/m² | - |
| 1777561957 | 8.33° C | 94% | 1012.6 hPa | 1.78 mm | - | 106 W/m² | - |
| 1777561654 | 8.33° C | 94% | 1012.9 hPa | 1.78 mm | - | 65 W/m² | - |
| 1777561350 | 8.33° C | 93% | 1012.7 hPa | 3.05 mm | - | 56 W/m² | - |
| 1777561045 | 8.33° C | 93% | 1012.8 hPa | 6.1 mm | - | 67 W/m² | - |
| 1777560741 | 8.33° C | 93% | 1012.8 hPa | 4.32 mm | - | 78 W/m² | - |
| 1777560437 | 7.78° C | 93% | 1013 hPa | 4.83 mm | - | 114 W/m² | - |
| 1777560136 | 7.78° C | 93% | 1013 hPa | 1.78 mm | - | 56 W/m² | - |
| 1777559832 | 7.78° C | 93% | 1013.2 hPa | 0 mm | - | 42 W/m² | - |
| 1777559528 | 8.33° C | 92% | 1013.2 hPa | 1.27 mm | - | 42 W/m² | - |
| 1777559226 | 8.33° C | 92% | 1013 hPa | 1.27 mm | - | 76 W/m² | - |
| 1777558920 | 8.33° C | 92% | 1013.1 hPa | 1.27 mm | - | 98 W/m² | - |
* Rain latest hour (hover to see other rain measurements)
** Current wind speed in m/s (hover to see current wind gust speed)